Aérodrome :
LOGIN :

S'inscrire | Disclaimer

   EN    FR    IT 

 










Légende :    VFR   VFR Marginal   IFR   IFR Intensif   IFR Très Intensif
Visi : 
Plafond : 
>= 8 km
>= 3000ft
5 à 8 km
1000 à 3000 ft
1500m à 5 km
500 à 1000 ft
800 à 1500m
200 à 500 ft
< 800m
< 200 ft
Symboles :   Orages  Brouillard  Fortes neiges  Fortes précipitations  Vent > 20 kt
SIGMETs :   Divers  Orages  Givrage  Turbulence  Onde Orograph.  Cendres Volcan.






- Altitude de l'aérodrome : 436 ft
- Code IATA : BTS


LZIB - Bratislava

DERNIER METAR :
  • 221800Z 34003KT CAVOK 15/13 Q1022 NOSIG

METARs EXPIRÉS :
  • 221730Z VRB03KT CAVOK 15/13 Q1022 NOSIG
  • 221700Z 14003KT CAVOK 16/13 Q1022 NOSIG
  • 221630Z 15003KT CAVOK 17/13 Q1022 NOSIG
  • 221600Z 16004KT CAVOK 18/14 Q1022 NOSIG
  • 221530Z 15003KT CAVOK 20/14 Q1022 NOSIG

TAF TAF LZIB
Valide du 22 à 18h jusqu'au 23 à 18h UTC


221700Z 2218/2318 06005KT CAVOK
BECMG 2220/2222 VRB02KT 3500 BR NSC
BECMG 2222/2300 1200 BCFG SCT002
TEMPO 2223/2308 0500 FG BKN002
PROB30
TEMPO 2301/2307 0100 FG VV001
BECMG 2308/2310 15007KT 5000 BR BKN007
BECMG 2309/2311 CAVOK



MET'MAP, la Météo Aéronautique d'un coup d'oeil ! - Copyright ORBIFLY Décembre 2007 - Disclaimer

ORBIFLY MET'MAP TEAM :

Programmation & Développement : Alexandra Zaïnal
Conception & Développement : Baudouin d'Aumeries
Co-Programmation & Développement : Marc-Olivier Méhu
Soutien technique & logistique : Manuel Goepfert

Contact : metmap@orbifly.com




SOURCES & CREDITS :

   NOAA